createdAt,value
2022-12-05T00:01:19.287Z,5.00
2022-12-05T00:03:47.141Z,5.00
2022-12-05T00:06:13.988Z,5.00
2022-12-05T00:08:40.663Z,4.80
2022-12-05T00:11:14.572Z,4.80
2022-12-05T00:13:42.535Z,4.80
2022-12-05T00:16:10.400Z,4.70
2022-12-05T00:18:37.393Z,4.60
2022-12-05T00:21:04.252Z,4.50
2022-12-05T00:23:30.948Z,4.40
2022-12-05T00:25:57.635Z,4.30
2022-12-05T00:28:24.359Z,4.40
2022-12-05T00:30:51.096Z,4.50
2022-12-05T00:33:17.810Z,4.50
2022-12-05T00:35:44.603Z,4.50
2022-12-05T00:38:11.277Z,4.50
2022-12-05T00:40:38.010Z,4.50
2022-12-05T00:43:04.807Z,4.50
2022-12-05T00:45:31.634Z,4.50
2022-12-05T00:47:58.430Z,4.40
2022-12-05T00:50:25.206Z,4.40
2022-12-05T00:52:51.920Z,4.40
2022-12-05T00:55:18.572Z,4.30
2022-12-05T00:57:45.273Z,4.30
2022-12-05T01:00:12.395Z,4.30
2022-12-05T01:02:39.418Z,4.20
2022-12-05T01:05:06.494Z,4.20
2022-12-05T01:07:33.394Z,4.20
2022-12-05T01:10:00.178Z,4.20
2022-12-05T01:12:28.221Z,4.20
2022-12-05T01:14:55.129Z,4.10
2022-12-05T01:17:21.875Z,3.90
2022-12-05T01:19:48.566Z,4.00
2022-12-05T01:22:15.273Z,3.90
2022-12-05T01:24:42.079Z,3.80
2022-12-05T01:27:08.829Z,3.60
2022-12-05T01:29:35.624Z,3.50
2022-12-05T01:32:02.446Z,3.50
2022-12-05T01:34:29.622Z,3.40
2022-12-05T01:36:56.346Z,3.40
2022-12-05T01:39:23.128Z,3.50
2022-12-05T01:41:50.208Z,3.50
2022-12-05T01:44:16.933Z,3.50
2022-12-05T01:46:51.175Z,3.40
2022-12-05T01:49:34.139Z,3.30
2022-12-05T01:52:06.685Z,3.40
2022-12-05T01:54:33.455Z,3.50
2022-12-05T01:57:02.774Z,3.50
2022-12-05T01:59:30.637Z,3.40
2022-12-05T02:01:57.379Z,3.30
2022-12-05T02:04:24.155Z,3.40
2022-12-05T02:06:51.433Z,3.40
2022-12-05T02:09:18.132Z,3.40
2022-12-05T02:11:50.251Z,3.40
2022-12-05T02:14:39.370Z,3.40
2022-12-05T02:17:48.395Z,3.30
2022-12-05T02:20:33.248Z,3.30
2022-12-05T02:23:08.660Z,3.20
2022-12-05T02:25:38.224Z,3.20
2022-12-05T02:28:19.637Z,3.20
2022-12-05T02:30:51.104Z,3.20
2022-12-05T02:33:34.397Z,3.10
2022-12-05T02:36:07.578Z,3.00
2022-12-05T02:38:40.336Z,3.00
2022-12-05T02:41:27.525Z,3.00
2022-12-05T02:44:00.469Z,3.10
2022-12-05T02:46:28.647Z,2.90
2022-12-05T02:49:08.176Z,2.90
2022-12-05T02:51:37.892Z,2.90
2022-12-05T02:54:07.078Z,2.90
2022-12-05T02:56:34.279Z,2.90
2022-12-05T02:59:01.033Z,2.80
2022-12-05T03:01:30.225Z,2.80
2022-12-05T03:03:57.228Z,2.90
2022-12-05T03:06:34.941Z,2.90
2022-12-05T03:09:06.885Z,3.00
2022-12-05T03:11:37.571Z,3.00
2022-12-05T03:14:04.344Z,3.00
2022-12-05T03:16:40.123Z,2.90
2022-12-05T03:19:20.085Z,2.80
2022-12-05T03:22:06.553Z,2.80
2022-12-05T03:24:34.994Z,2.70
2022-12-05T03:27:23.171Z,2.70
2022-12-05T03:30:09.566Z,2.70
2022-12-05T03:32:43.003Z,2.70
2022-12-05T03:35:26.900Z,2.70
2022-12-05T03:38:13.923Z,2.70
2022-12-05T03:40:52.040Z,2.70
2022-12-05T03:43:30.758Z,2.70
2022-12-05T03:46:13.387Z,2.80
2022-12-05T03:48:48.990Z,2.70
2022-12-05T03:51:16.514Z,2.70
2022-12-05T03:53:47.904Z,2.60
2022-12-05T03:56:17.452Z,2.60
2022-12-05T03:58:58.547Z,2.70
2022-12-05T04:01:25.936Z,2.70
2022-12-05T04:04:05.435Z,2.70
2022-12-05T04:06:33.680Z,2.80
2022-12-05T04:09:05.028Z,2.70
2022-12-05T04:11:34.774Z,2.70
2022-12-05T04:14:06.253Z,2.70
2022-12-05T04:17:01.935Z,2.70
2022-12-05T04:20:12.004Z,2.70
2022-12-05T04:22:38.752Z,2.70
2022-12-05T04:25:25.453Z,2.70
2022-12-05T04:28:21.767Z,2.60
2022-12-05T04:31:10.097Z,2.70
2022-12-05T04:33:44.078Z,2.70
2022-12-05T04:36:25.462Z,2.60
2022-12-05T04:39:00.895Z,2.70
2022-12-05T04:41:33.922Z,2.70
2022-12-05T04:44:03.917Z,2.70
2022-12-05T04:46:30.623Z,2.70
2022-12-05T04:48:59.145Z,2.60
2022-12-05T04:51:27.080Z,2.70
2022-12-05T04:54:00.302Z,2.60
2022-12-05T04:56:29.255Z,2.60
2022-12-05T04:58:56.137Z,2.70
2022-12-05T05:01:34.037Z,2.70
2022-12-05T05:04:18.019Z,2.70
2022-12-05T05:06:44.858Z,2.60
2022-12-05T05:09:11.608Z,2.70
2022-12-05T05:11:38.418Z,2.70
2022-12-05T05:14:05.132Z,2.80
2022-12-05T05:16:37.220Z,2.80
2022-12-05T05:19:04.566Z,2.80
2022-12-05T05:21:36.255Z,2.80
2022-12-05T05:24:03.388Z,2.80
2022-12-05T05:26:30.586Z,2.90
2022-12-05T05:28:57.846Z,2.90
2022-12-05T05:31:24.679Z,2.80
2022-12-05T05:33:52.268Z,2.90
2022-12-05T05:36:19.089Z,2.90
2022-12-05T05:38:47.338Z,2.90
2022-12-05T05:41:28.091Z,2.90
2022-12-05T05:43:55.007Z,3.00
2022-12-05T05:46:24.468Z,3.00
2022-12-05T05:48:51.396Z,3.10
2022-12-05T05:51:19.511Z,3.10
2022-12-05T05:53:46.313Z,3.20
2022-12-05T05:56:20.977Z,3.20
2022-12-05T05:58:48.690Z,3.20
2022-12-05T06:01:20.413Z,3.20
2022-12-05T06:03:47.292Z,3.10
2022-12-05T06:06:14.767Z,3.10
2022-12-05T06:08:42.543Z,3.20
2022-12-05T06:11:13.893Z,3.20
2022-12-05T06:13:40.931Z,3.20
2022-12-05T06:16:08.828Z,3.20
2022-12-05T06:18:35.588Z,3.30
2022-12-05T06:21:02.323Z,3.40
2022-12-05T06:23:29.055Z,3.40
2022-12-05T06:25:56.199Z,3.40
2022-12-05T06:28:24.441Z,3.40
2022-12-05T06:30:51.616Z,3.40
2022-12-05T06:33:18.681Z,3.50
2022-12-05T06:35:46.165Z,3.50
2022-12-05T06:38:13.015Z,3.50
2022-12-05T06:40:40.931Z,3.50
2022-12-05T06:43:07.712Z,3.60
2022-12-05T06:45:34.506Z,3.60
2022-12-05T06:48:01.308Z,3.60
2022-12-05T06:50:28.029Z,3.60
2022-12-05T06:52:54.799Z,3.60
2022-12-05T06:55:21.615Z,3.60
2022-12-05T06:57:48.316Z,3.60
2022-12-05T07:00:34.104Z,3.60
2022-12-05T07:03:00.856Z,3.70
2022-12-05T07:05:27.668Z,3.70
2022-12-05T07:07:54.500Z,3.80
2022-12-05T07:10:21.240Z,3.90
2022-12-05T07:12:48.010Z,3.90
2022-12-05T07:15:14.790Z,4.00
2022-12-05T07:17:41.591Z,3.90
2022-12-05T07:20:10.397Z,3.90
2022-12-05T07:22:37.274Z,4.00
2022-12-05T07:25:04.770Z,4.10
2022-12-05T07:27:31.484Z,4.10
2022-12-05T07:29:58.516Z,4.20
2022-12-05T07:32:25.456Z,4.20
2022-12-05T07:34:55.269Z,4.20
2022-12-05T07:37:22.526Z,4.20
2022-12-05T07:39:49.374Z,4.20
2022-12-05T07:42:16.171Z,4.20
2022-12-05T07:44:42.917Z,4.20
2022-12-05T07:47:09.578Z,4.20
2022-12-05T07:49:37.037Z,4.20
2022-12-05T07:52:03.916Z,4.30
2022-12-05T07:54:31.923Z,4.30
2022-12-05T07:56:58.685Z,4.40
2022-12-05T07:59:25.471Z,4.40
2022-12-05T08:01:52.387Z,4.50
2022-12-05T08:04:19.273Z,4.50
2022-12-05T08:06:46.027Z,4.60
2022-12-05T08:09:12.847Z,4.60
2022-12-05T08:11:39.571Z,4.60
2022-12-05T08:14:06.381Z,4.70
2022-12-05T08:16:33.167Z,4.70
2022-12-05T08:19:05.044Z,4.70
2022-12-05T08:21:31.924Z,4.60
2022-12-05T08:23:58.691Z,4.70
2022-12-05T08:26:27.384Z,4.70
2022-12-05T08:28:55.583Z,4.80
2022-12-05T08:31:24.385Z,4.90
2022-12-05T08:33:57.226Z,4.90
2022-12-05T08:36:25.997Z,4.90
2022-12-05T08:38:59.696Z,4.80
2022-12-05T08:41:28.790Z,4.80
2022-12-05T08:44:03.432Z,4.80
2022-12-05T08:46:31.297Z,4.90
2022-12-05T08:48:58.221Z,4.90
2022-12-05T08:51:25.006Z,5.00
2022-12-05T08:53:51.790Z,5.10
2022-12-05T08:56:23.365Z,5.10
2022-12-05T08:58:53.615Z,5.10
2022-12-05T09:01:21.177Z,5.20
2022-12-05T09:03:48.433Z,5.20
2022-12-05T09:06:19.553Z,5.30
2022-12-05T09:08:46.303Z,5.20
2022-12-05T09:11:18.171Z,5.30
2022-12-05T09:13:45.177Z,5.30
2022-12-05T09:16:13.756Z,5.30
2022-12-05T09:18:40.569Z,5.40
2022-12-05T09:21:07.268Z,5.40
2022-12-05T09:23:34.077Z,5.40
2022-12-05T09:26:03.525Z,5.40
2022-12-05T09:28:30.399Z,5.50
2022-12-05T09:31:02.018Z,5.50
2022-12-05T09:33:29.672Z,5.50
2022-12-05T09:35:56.432Z,5.50
2022-12-05T09:38:23.155Z,5.50
2022-12-05T09:41:21.745Z,5.50
2022-12-05T09:43:50.364Z,5.60
2022-12-05T09:46:39.193Z,5.60
2022-12-05T09:49:05.975Z,5.70
2022-12-05T09:51:32.745Z,5.70
2022-12-05T09:53:59.468Z,5.70
2022-12-05T09:56:30.464Z,5.80
2022-12-05T09:58:58.052Z,5.80
2022-12-05T10:01:30.980Z,5.90
2022-12-05T10:04:27.319Z,6.00
2022-12-05T10:07:27.534Z,6.00
2022-12-05T10:10:27.786Z,6.10
2022-12-05T10:13:18.934Z,6.10
2022-12-05T10:15:56.989Z,6.10
2022-12-05T10:18:45.813Z,6.10
2022-12-05T10:21:18.881Z,6.10
2022-12-05T10:24:05.190Z,6.10
2022-12-05T10:26:46.984Z,6.20
2022-12-05T10:29:37.591Z,6.20
2022-12-05T10:32:28.629Z,6.30
2022-12-05T10:35:00.001Z,6.30
2022-12-05T10:37:26.962Z,6.40
2022-12-05T10:39:55.396Z,6.40
2022-12-05T10:42:24.257Z,6.50
2022-12-05T10:44:59.018Z,6.50
2022-12-05T10:47:25.995Z,6.50
2022-12-05T10:49:52.940Z,6.50
2022-12-05T10:52:19.639Z,6.60
2022-12-05T10:54:49.564Z,6.70
2022-12-05T10:57:24.386Z,6.70
2022-12-05T10:59:51.293Z,6.80
2022-12-05T11:02:31.814Z,6.90
2022-12-05T11:05:04.276Z,7.00
2022-12-05T11:07:44.226Z,7.10
2022-12-05T11:10:32.198Z,7.30
2022-12-05T11:12:59.132Z,7.30
2022-12-05T11:15:28.077Z,7.40
2022-12-05T11:17:56.112Z,7.50
2022-12-05T11:20:22.725Z,7.60
2022-12-05T11:22:53.791Z,7.60
2022-12-05T11:25:31.693Z,7.70
2022-12-05T11:28:01.554Z,7.80
2022-12-05T11:30:29.247Z,7.90
2022-12-05T11:33:20.272Z,7.90
2022-12-05T11:35:50.720Z,8.00
2022-12-05T11:38:17.819Z,8.10
2022-12-05T11:40:59.666Z,8.10
2022-12-05T11:44:16.756Z,8.20
2022-12-05T11:47:07.197Z,8.30
2022-12-05T11:50:07.540Z,8.40
2022-12-05T11:53:13.901Z,8.40
2022-12-05T11:55:53.795Z,8.40
2022-12-05T11:58:35.323Z,8.30
2022-12-05T12:01:26.127Z,8.40
2022-12-05T12:04:30.125Z,8.40
2022-12-05T12:07:05.304Z,8.60
2022-12-05T12:09:53.601Z,8.60
2022-12-05T12:12:28.903Z,8.60
2022-12-05T12:15:18.282Z,8.70
2022-12-05T12:17:51.154Z,8.80
2022-12-05T12:20:35.939Z,8.80
2022-12-05T12:23:44.377Z,8.90
2022-12-05T12:26:25.120Z,9.00
2022-12-05T12:29:18.074Z,9.10
2022-12-05T12:31:48.795Z,9.10
2022-12-05T12:34:30.595Z,9.10
2022-12-05T12:37:19.642Z,9.20
2022-12-05T12:40:04.966Z,9.30
2022-12-05T12:42:38.208Z,9.40
2022-12-05T12:45:35.494Z,9.50
2022-12-05T12:48:22.660Z,9.50
2022-12-05T12:50:53.207Z,9.50
2022-12-05T12:53:38.444Z,9.50
2022-12-05T12:56:08.490Z,9.50
2022-12-05T12:58:52.107Z,9.40
2022-12-05T13:01:38.374Z,9.40
2022-12-05T13:04:12.641Z,9.40
2022-12-05T13:06:48.686Z,9.40
2022-12-05T13:09:32.961Z,9.40
2022-12-05T13:12:02.928Z,9.40
2022-12-05T13:14:29.729Z,9.30
2022-12-05T13:16:56.594Z,9.30
2022-12-05T13:19:46.432Z,9.30
2022-12-05T13:22:13.207Z,9.20
2022-12-05T13:24:39.950Z,9.20
2022-12-05T13:27:07.769Z,9.10
2022-12-05T13:29:36.718Z,9.00
2022-12-05T13:32:03.904Z,9.00
2022-12-05T13:34:48.047Z,9.00
2022-12-05T13:37:46.768Z,9.00
2022-12-05T13:40:51.714Z,8.90
2022-12-05T13:43:23.044Z,8.80
2022-12-05T13:46:05.441Z,8.70
2022-12-05T13:48:34.084Z,8.70
2022-12-05T13:51:10.346Z,8.60
2022-12-05T13:53:41.214Z,8.60
2022-12-05T13:56:29.875Z,8.60
2022-12-05T13:58:57.833Z,8.60
2022-12-05T14:01:27.951Z,8.60
2022-12-05T14:03:58.969Z,8.60
2022-12-05T14:06:51.499Z,8.60
2022-12-05T14:09:18.131Z,8.50
2022-12-05T14:12:15.305Z,8.50
2022-12-05T14:14:57.382Z,8.40
2022-12-05T14:17:42.413Z,8.40
2022-12-05T14:20:36.973Z,8.40
2022-12-05T14:23:28.482Z,8.30
2022-12-05T14:26:16.961Z,8.30
2022-12-05T14:28:58.713Z,8.40
2022-12-05T14:31:34.417Z,8.40
2022-12-05T14:34:18.408Z,8.30
2022-12-05T14:37:19.827Z,8.30
2022-12-05T14:39:49.044Z,8.20
2022-12-05T14:42:35.575Z,8.20
2022-12-05T14:45:04.097Z,8.20
2022-12-05T14:47:32.561Z,8.20
2022-12-05T14:50:02.659Z,8.10
2022-12-05T14:52:30.632Z,8.00
2022-12-05T14:55:02.576Z,8.10
2022-12-05T14:57:29.410Z,8.00
2022-12-05T15:00:01.734Z,8.00
2022-12-05T15:02:39.512Z,8.00
2022-12-05T15:05:20.697Z,8.00
2022-12-05T15:07:47.516Z,7.90
2022-12-05T15:10:16.281Z,7.90
2022-12-05T15:12:43.050Z,7.90
2022-12-05T15:15:19.829Z,7.80
2022-12-05T15:17:50.144Z,7.90
2022-12-05T15:20:27.522Z,7.90
2022-12-05T15:22:54.277Z,7.90
2022-12-05T15:25:31.818Z,7.90
2022-12-05T15:28:01.108Z,7.90
2022-12-05T15:30:28.026Z,7.80
2022-12-05T15:32:59.194Z,7.80
2022-12-05T15:35:27.639Z,7.80
2022-12-05T15:37:59.872Z,7.70
2022-12-05T15:40:27.100Z,7.70
2022-12-05T15:42:57.730Z,7.70
2022-12-05T15:45:26.193Z,7.70
2022-12-05T15:48:14.553Z,7.60
2022-12-05T15:50:45.467Z,7.60
2022-12-05T15:53:48.974Z,7.70
2022-12-05T15:56:33.849Z,7.70
2022-12-05T15:59:08.990Z,7.50
2022-12-05T16:01:42.826Z,7.50
2022-12-05T16:04:12.676Z,7.40
2022-12-05T16:06:48.847Z,7.30
2022-12-05T16:09:22.926Z,7.30
2022-12-05T16:12:00.721Z,7.10
2022-12-05T16:14:58.772Z,7.10
2022-12-05T16:17:21.196Z,7.00
2022-12-05T16:19:47.911Z,7.00
2022-12-05T16:22:17.289Z,7.00
2022-12-05T16:24:48.352Z,6.90
2022-12-05T16:27:23.401Z,6.90
2022-12-05T16:30:06.779Z,6.90
2022-12-05T16:32:33.543Z,6.90
2022-12-05T16:35:00.350Z,6.90
2022-12-05T16:37:28.160Z,6.90
2022-12-05T16:39:55.106Z,6.80
2022-12-05T16:42:25.923Z,6.80
2022-12-05T16:45:02.265Z,6.70
2022-12-05T16:47:41.615Z,6.70
2022-12-05T16:50:35.024Z,6.70
2022-12-05T16:53:22.926Z,6.70
2022-12-05T16:55:49.730Z,6.60
2022-12-05T16:58:29.031Z,6.60
2022-12-05T17:01:04.545Z,6.60
2022-12-05T17:03:35.727Z,6.60
2022-12-05T17:06:02.905Z,6.60
2022-12-05T17:08:29.697Z,6.60
2022-12-05T17:10:56.883Z,6.50
2022-12-05T17:13:23.708Z,6.60
2022-12-05T17:15:50.619Z,6.50
2022-12-05T17:18:20.493Z,6.50
2022-12-05T17:20:50.491Z,6.50
2022-12-05T17:23:17.623Z,6.50
2022-12-05T17:25:55.038Z,6.50
2022-12-05T17:28:21.957Z,6.40
2022-12-05T17:30:48.853Z,6.40
2022-12-05T17:33:17.349Z,6.40
2022-12-05T17:35:44.224Z,6.30
2022-12-05T17:38:11.045Z,6.30
2022-12-05T17:40:38.250Z,6.30
2022-12-05T17:43:05.254Z,6.20
2022-12-05T17:45:32.296Z,6.20
2022-12-05T17:47:59.149Z,6.20
2022-12-05T17:50:26.123Z,6.10
2022-12-05T17:52:55.223Z,6.10
2022-12-05T17:55:28.886Z,6.10
2022-12-05T17:57:55.790Z,6.10
2022-12-05T18:00:23.486Z,6.10
2022-12-05T18:02:50.961Z,6.10
2022-12-05T18:05:17.901Z,6.10
2022-12-05T18:07:45.152Z,6.00
2022-12-05T18:10:14.381Z,6.00
2022-12-05T18:12:41.244Z,6.10
2022-12-05T18:15:08.412Z,6.00
2022-12-05T18:17:35.480Z,5.90
2022-12-05T18:20:02.305Z,5.90
2022-12-05T18:22:29.061Z,5.90
2022-12-05T18:24:58.334Z,6.00
2022-12-05T18:27:25.500Z,6.00
2022-12-05T18:29:52.251Z,5.90
2022-12-05T18:32:20.757Z,6.00
2022-12-05T18:34:47.526Z,6.00
2022-12-05T18:37:16.312Z,6.10
2022-12-05T18:39:43.051Z,6.10
2022-12-05T18:42:15.075Z,6.00
2022-12-05T18:44:42.139Z,5.90
2022-12-05T18:47:08.933Z,5.80
2022-12-05T18:49:35.743Z,5.70
2022-12-05T18:52:02.546Z,5.70
2022-12-05T18:54:29.304Z,5.70
2022-12-05T18:56:56.075Z,5.70
2022-12-05T18:59:23.976Z,5.70
2022-12-05T19:01:53.478Z,5.70
2022-12-05T19:04:21.449Z,5.70
2022-12-05T19:06:52.964Z,5.60
2022-12-05T19:09:24.316Z,5.60
2022-12-05T19:11:55.001Z,5.60
2022-12-05T19:14:21.901Z,5.60
2022-12-05T19:16:52.590Z,5.60
2022-12-05T19:19:23.109Z,5.60
2022-12-05T19:21:49.872Z,5.50
2022-12-05T19:24:18.281Z,5.40
2022-12-05T19:26:45.221Z,5.30
2022-12-05T19:29:12.350Z,5.30
2022-12-05T19:31:39.454Z,5.30
2022-12-05T19:34:06.906Z,5.20
2022-12-05T19:36:35.665Z,5.20
2022-12-05T19:39:06.482Z,5.20
2022-12-05T19:41:33.148Z,5.20
2022-12-05T19:43:59.971Z,5.20
2022-12-05T19:46:29.794Z,5.20
2022-12-05T19:48:57.581Z,5.20
2022-12-05T19:51:24.942Z,5.20
2022-12-05T19:53:51.782Z,5.30
2022-12-05T19:56:20.563Z,5.30
2022-12-05T19:58:47.472Z,5.30
2022-12-05T20:01:28.064Z,5.30
2022-12-05T20:04:02.621Z,5.20
2022-12-05T20:06:34.170Z,5.30
2022-12-05T20:09:01.025Z,5.20
2022-12-05T20:11:29.039Z,5.20
2022-12-05T20:13:56.771Z,5.20
2022-12-05T20:16:25.981Z,5.20
2022-12-05T20:18:53.135Z,5.10
2022-12-05T20:21:22.003Z,5.10
2022-12-05T20:23:49.160Z,5.10
2022-12-05T20:26:20.649Z,5.10
2022-12-05T20:28:47.539Z,5.00
2022-12-05T20:31:16.284Z,5.00
2022-12-05T20:33:43.297Z,5.00
2022-12-05T20:36:14.551Z,5.00
2022-12-05T20:38:41.483Z,5.00
2022-12-05T20:41:11.062Z,5.00
2022-12-05T20:43:37.966Z,5.00
2022-12-05T20:46:08.938Z,5.10
2022-12-05T20:48:35.803Z,5.10
2022-12-05T20:51:06.584Z,5.00
2022-12-05T20:53:34.988Z,5.00
2022-12-05T20:56:11.609Z,5.00
2022-12-05T20:58:38.621Z,5.00
2022-12-05T21:01:07.668Z,5.00
2022-12-05T21:03:35.007Z,5.00
2022-12-05T21:06:07.363Z,5.00
2022-12-05T21:08:34.168Z,4.90
2022-12-05T21:11:00.917Z,4.90
2022-12-05T21:13:27.685Z,4.90
2022-12-05T21:15:54.486Z,5.00
2022-12-05T21:18:21.232Z,5.00
2022-12-05T21:20:58.539Z,5.00
2022-12-05T21:23:25.577Z,5.00
2022-12-05T21:25:52.489Z,5.00
2022-12-05T21:28:19.194Z,5.00
2022-12-05T21:30:45.950Z,4.90
2022-12-05T21:33:12.760Z,4.80
2022-12-05T21:35:39.471Z,4.80
2022-12-05T21:38:06.275Z,4.70
2022-12-05T21:40:32.971Z,4.70
2022-12-05T21:42:59.670Z,4.70
2022-12-05T21:45:26.463Z,4.80
2022-12-05T21:47:53.852Z,4.90
2022-12-05T21:50:20.605Z,4.90
2022-12-05T21:52:47.259Z,4.90
2022-12-05T21:55:14.057Z,4.90
2022-12-05T21:57:40.821Z,4.90
2022-12-05T22:00:09.218Z,4.90
2022-12-05T22:02:36.016Z,5.00
2022-12-05T22:05:02.717Z,5.00
2022-12-05T22:07:29.545Z,4.90
2022-12-05T22:09:56.343Z,5.00
2022-12-05T22:12:23.379Z,5.00
2022-12-05T22:14:50.433Z,5.00
2022-12-05T22:17:17.247Z,5.00
2022-12-05T22:19:43.982Z,4.90
2022-12-05T22:22:10.882Z,4.90
2022-12-05T22:24:39.080Z,4.90
2022-12-05T22:27:05.734Z,4.90
2022-12-05T22:29:32.431Z,4.90
2022-12-05T22:31:59.156Z,4.90
2022-12-05T22:34:25.884Z,4.90
2022-12-05T22:36:52.635Z,4.90
2022-12-05T22:39:19.294Z,4.90
2022-12-05T22:41:45.981Z,4.90
2022-12-05T22:44:12.708Z,4.90
2022-12-05T22:46:39.402Z,5.00
2022-12-05T22:49:06.167Z,4.90
2022-12-05T22:51:33.033Z,5.00
2022-12-05T22:53:59.742Z,5.00
2022-12-05T22:56:27.896Z,4.90
2022-12-05T22:58:55.895Z,4.80
2022-12-05T23:01:28.220Z,4.70
2022-12-05T23:04:07.275Z,4.80
2022-12-05T23:06:34.792Z,4.80
2022-12-05T23:09:02.041Z,4.80
2022-12-05T23:11:29.872Z,4.80
2022-12-05T23:14:01.507Z,4.90
2022-12-05T23:16:30.011Z,4.90
2022-12-05T23:18:58.409Z,4.90
2022-12-05T23:21:26.720Z,4.90
2022-12-05T23:23:55.132Z,4.90
2022-12-05T23:26:23.550Z,4.90
2022-12-05T23:28:50.388Z,4.90
2022-12-05T23:31:17.496Z,4.90
2022-12-05T23:33:44.278Z,4.90
2022-12-05T23:36:11.452Z,4.90
2022-12-05T23:38:38.724Z,4.90
2022-12-05T23:41:12.174Z,4.90
2022-12-05T23:43:39.017Z,4.90
2022-12-05T23:46:06.174Z,4.80
2022-12-05T23:48:33.085Z,4.80
2022-12-05T23:51:07.861Z,4.80
2022-12-05T23:53:36.037Z,4.80
2022-12-05T23:56:03.761Z,4.90
2022-12-05T23:58:30.892Z,4.80
